Strona główna
METAR-TAF:

METAR-TAF

Lotnisko :

Port lotniczy Batam-Hang Nadim

Batam, Indonezja

Szerokość geograficzna: 01-07-15N, Długość geograficzna: 104-07-07E, wysokość: 38 m

Aktualna obserwacja pogody

Raport powstał 34 minut temu, godzina 05:30 UTC
Wiatr 8 kt od północny wschód
Temperatura 31°C
Wilgotność 63%
Ciśnienie 1012 hPa
Widzialność 10 km lub więcej
Mało chmury na wysokości 1400 ft

METAR: WIDD 280530Z 05008KT 9999 FEW014 31/23 Q1012 NOSIG

czas: 13:04 (06:04 UTC)

Prognoza

Raport powstał 1 godzina i 4 minut temu, godzina 05:00 UTC
Prognoza ważna od 28 godzina 06 UTC do 29 godzina 06 UTC
Wiatr 8 kt od północny wschód
Widzialność 10 km lub więcej
Mało chmury na wysokości 1400 ft

TAF: WIDD 280500Z 2806/2906 04008KT 9999 FEW014

Obserwacja i prognoza pogody dla ponad 4000 lotnisk (raport METAR i TAF).

Dostępne stacje oznaczono żółtymi i czerwonymi punktami na mapie.

Najedź kursorem aby zobaczyć nazwę stacji.

Kliknij aby zobaczyć obserwacje i prognozy pogody.

Aby zmienić mapę: kliknij na zielony przycisk z czarnym krzyżykiem, aby powiększyć; na zielony przycisk z myślnikiem, aby pomniejszyć; na zielone strzałki, aby przejść do map sąsiednich.


METAR-TAF: